sensor_id;sensor_type;location;lat;lon;timestamp;pressure;altitude;pressure_sealevel;temperature;humidity
3748;BME280;1889;50.058;8.688;2023-12-04T00:02:24;100499.62;;;4.69;52.94
3748;BME280;1889;50.058;8.688;2023-12-04T00:04:53;100496.50;;;4.62;53.13
3748;BME280;1889;50.058;8.688;2023-12-04T00:07:23;100490.56;;;4.75;52.43
3748;BME280;1889;50.058;8.688;2023-12-04T00:09:51;100484.45;;;4.73;52.23
3748;BME280;1889;50.058;8.688;2023-12-04T00:12:21;100487.44;;;4.68;52.26
3748;BME280;1889;50.058;8.688;2023-12-04T00:14:50;100480.47;;;4.67;52.35
3748;BME280;1889;50.058;8.688;2023-12-04T00:17:18;100475.64;;;4.64;52.42
3748;BME280;1889;50.058;8.688;2023-12-04T00:19:47;100474.00;;;4.70;52.04
3748;BME280;1889;50.058;8.688;2023-12-04T00:22:16;100463.44;;;4.59;52.26
3748;BME280;1889;50.058;8.688;2023-12-04T00:24:45;100465.02;;;4.45;52.47
3748;BME280;1889;50.058;8.688;2023-12-04T00:27:14;100458.48;;;4.44;52.69
3748;BME280;1889;50.058;8.688;2023-12-04T00:29:44;100461.58;;;4.49;52.60
3748;BME280;1889;50.058;8.688;2023-12-04T00:32:13;100455.89;;;4.47;52.60
3748;BME280;1889;50.058;8.688;2023-12-04T00:34:41;100452.23;;;4.30;52.86
3748;BME280;1889;50.058;8.688;2023-12-04T00:37:10;100455.38;;;4.40;52.60
3748;BME280;1889;50.058;8.688;2023-12-04T00:39:40;100445.81;;;4.37;52.67
3748;BME280;1889;50.058;8.688;2023-12-04T00:42:08;100446.25;;;4.40;52.57
3748;BME280;1889;50.058;8.688;2023-12-04T00:44:37;100439.67;;;4.34;52.69
3748;BME280;1889;50.058;8.688;2023-12-04T00:47:06;100435.86;;;4.41;52.56
3748;BME280;1889;50.058;8.688;2023-12-04T00:49:36;100433.47;;;4.24;52.89
3748;BME280;1889;50.058;8.688;2023-12-04T00:52:05;100432.59;;;4.23;52.79
3748;BME280;1889;50.058;8.688;2023-12-04T00:54:33;100434.80;;;4.26;52.61
3748;BME280;1889;50.058;8.688;2023-12-04T00:57:03;100433.02;;;4.23;52.70
3748;BME280;1889;50.058;8.688;2023-12-04T00:59:32;100434.39;;;4.28;52.48
3748;BME280;1889;50.058;8.688;2023-12-04T01:02:01;100426.44;;;4.17;52.77
3748;BME280;1889;50.058;8.688;2023-12-04T01:04:31;100425.19;;;4.20;52.80
3748;BME280;1889;50.058;8.688;2023-12-04T01:07:01;100416.87;;;4.16;52.90
3748;BME280;1889;50.058;8.688;2023-12-04T01:09:29;100412.16;;;4.20;52.48
3748;BME280;1889;50.058;8.688;2023-12-04T01:11:58;100410.89;;;3.91;53.18
3748;BME280;1889;50.058;8.688;2023-12-04T01:14:27;100406.53;;;3.90;53.26
3748;BME280;1889;50.058;8.688;2023-12-04T01:16:56;100401.02;;;3.99;53.01
3748;BME280;1889;50.058;8.688;2023-12-04T01:19:25;100397.97;;;3.98;52.87
3748;BME280;1889;50.058;8.688;2023-12-04T01:21:54;100396.36;;;4.08;52.60
3748;BME280;1889;50.058;8.688;2023-12-04T01:24:24;100400.58;;;3.97;52.93
3748;BME280;1889;50.058;8.688;2023-12-04T01:26:52;100397.63;;;4.03;52.46
3748;BME280;1889;50.058;8.688;2023-12-04T01:29:21;100391.44;;;3.95;52.70
3748;BME280;1889;50.058;8.688;2023-12-04T01:31:51;100387.56;;;3.97;52.53
3748;BME280;1889;50.058;8.688;2023-12-04T01:34:19;100386.31;;;3.39;53.91
3748;BME280;1889;50.058;8.688;2023-12-04T01:36:49;100382.41;;;3.39;54.04
3748;BME280;1889;50.058;8.688;2023-12-04T01:39:17;100377.91;;;3.29;54.20
3748;BME280;1889;50.058;8.688;2023-12-04T01:41:46;100376.09;;;3.25;54.21
3748;BME280;1889;50.058;8.688;2023-12-04T01:44:15;100371.07;;;3.36;53.88
3748;BME280;1889;50.058;8.688;2023-12-04T01:46:45;100370.67;;;3.38;53.79
3748;BME280;1889;50.058;8.688;2023-12-04T01:49:14;100374.23;;;3.44;53.39
3748;BME280;1889;50.058;8.688;2023-12-04T01:51:44;100369.67;;;3.59;53.26
3748;BME280;1889;50.058;8.688;2023-12-04T01:54:14;100374.52;;;3.63;53.11
3748;BME280;1889;50.058;8.688;2023-12-04T01:56:43;100374.48;;;3.61;53.45
3748;BME280;1889;50.058;8.688;2023-12-04T01:59:12;100372.39;;;3.67;53.16
3748;BME280;1889;50.058;8.688;2023-12-04T02:01:42;100370.07;;;3.57;53.18
3748;BME280;1889;50.058;8.688;2023-12-04T02:04:12;100369.87;;;3.71;52.87
3748;BME280;1889;50.058;8.688;2023-12-04T02:06:43;100367.29;;;3.73;52.93
3748;BME280;1889;50.058;8.688;2023-12-04T02:09:12;100371.66;;;3.77;52.75
3748;BME280;1889;50.058;8.688;2023-12-04T02:11:43;100369.56;;;3.81;52.77
3748;BME280;1889;50.058;8.688;2023-12-04T02:14:12;100373.21;;;3.63;52.36
3748;BME280;1889;50.058;8.688;2023-12-04T02:16:42;100369.81;;;3.68;52.72
3748;BME280;1889;50.058;8.688;2023-12-04T02:19:13;100367.08;;;3.92;51.87
3748;BME280;1889;50.058;8.688;2023-12-04T02:21:41;100364.80;;;3.83;52.26
3748;BME280;1889;50.058;8.688;2023-12-04T02:24:10;100368.71;;;3.83;52.22
3748;BME280;1889;50.058;8.688;2023-12-04T02:26:53;100372.27;;;3.89;52.04
3748;BME280;1889;50.058;8.688;2023-12-04T02:29:29;100371.39;;;3.88;52.11
3748;BME280;1889;50.058;8.688;2023-12-04T02:31:58;100371.04;;;3.95;51.50
3748;BME280;1889;50.058;8.688;2023-12-04T02:34:29;100367.06;;;3.89;51.59
3748;BME280;1889;50.058;8.688;2023-12-04T02:37:01;100352.31;;;3.91;51.60
3748;BME280;1889;50.058;8.688;2023-12-04T02:39:31;100344.06;;;3.88;51.55
3748;BME280;1889;50.058;8.688;2023-12-04T02:42:00;100344.91;;;3.55;51.59
3748;BME280;1889;50.058;8.688;2023-12-04T02:44:29;100338.25;;;3.44;52.45
3748;BME280;1889;50.058;8.688;2023-12-04T02:46:58;100334.95;;;3.56;52.18
3748;BME280;1889;50.058;8.688;2023-12-04T02:49:27;100330.75;;;3.67;52.14
3748;BME280;1889;50.058;8.688;2023-12-04T02:51:56;100330.33;;;3.67;52.17
3748;BME280;1889;50.058;8.688;2023-12-04T02:54:25;100328.15;;;3.67;51.99
3748;BME280;1889;50.058;8.688;2023-12-04T02:56:53;100318.34;;;3.78;51.60
3748;BME280;1889;50.058;8.688;2023-12-04T02:59:22;100320.14;;;3.52;52.30
3748;BME280;1889;50.058;8.688;2023-12-04T03:01:51;100316.16;;;3.78;51.75
3748;BME280;1889;50.058;8.688;2023-12-04T03:04:20;100320.19;;;3.87;51.38
3748;BME280;1889;50.058;8.688;2023-12-04T03:06:49;100315.42;;;3.90;51.29
3748;BME280;1889;50.058;8.688;2023-12-04T03:09:18;100311.86;;;3.80;51.01
3748;BME280;1889;50.058;8.688;2023-12-04T03:11:46;100306.67;;;3.83;51.27
3748;BME280;1889;50.058;8.688;2023-12-04T03:14:15;100301.58;;;3.92;51.08
3748;BME280;1889;50.058;8.688;2023-12-04T03:16:44;100294.17;;;3.90;51.18
3748;BME280;1889;50.058;8.688;2023-12-04T03:19:13;100285.51;;;3.91;51.27
3748;BME280;1889;50.058;8.688;2023-12-04T03:21:42;100276.47;;;3.96;50.95
3748;BME280;1889;50.058;8.688;2023-12-04T03:24:11;100281.27;;;3.99;50.59
3748;BME280;1889;50.058;8.688;2023-12-04T03:26:40;100287.25;;;3.89;50.91
3748;BME280;1889;50.058;8.688;2023-12-04T03:29:10;100277.78;;;3.99;50.28
3748;BME280;1889;50.058;8.688;2023-12-04T03:31:39;100282.10;;;3.95;50.59
3748;BME280;1889;50.058;8.688;2023-12-04T03:34:08;100272.56;;;3.96;50.57
3748;BME280;1889;50.058;8.688;2023-12-04T03:36:36;100275.13;;;3.93;50.58
3748;BME280;1889;50.058;8.688;2023-12-04T03:39:05;100260.31;;;3.87;50.73
3748;BME280;1889;50.058;8.688;2023-12-04T03:41:34;100251.68;;;3.54;50.75
3748;BME280;1889;50.058;8.688;2023-12-04T03:44:03;100248.73;;;3.28;51.91
3748;BME280;1889;50.058;8.688;2023-12-04T03:46:32;100247.97;;;3.04;51.91
3748;BME280;1889;50.058;8.688;2023-12-04T03:49:01;100246.75;;;3.11;52.07
3748;BME280;1889;50.058;8.688;2023-12-04T03:51:32;100244.70;;;3.19;52.11
3748;BME280;1889;50.058;8.688;2023-12-04T03:54:00;100246.35;;;3.13;52.20
3748;BME280;1889;50.058;8.688;2023-12-04T03:56:29;100243.25;;;3.41;51.65
3748;BME280;1889;50.058;8.688;2023-12-04T03:58:58;100234.72;;;3.51;51.18
3748;BME280;1889;50.058;8.688;2023-12-04T04:01:27;100227.45;;;3.60;51.19
3748;BME280;1889;50.058;8.688;2023-12-04T04:03:56;100231.47;;;3.69;50.96
3748;BME280;1889;50.058;8.688;2023-12-04T04:06:25;100227.94;;;3.65;51.04
3748;BME280;1889;50.058;8.688;2023-12-04T04:08:53;100221.31;;;3.53;51.26
3748;BME280;1889;50.058;8.688;2023-12-04T04:11:22;100217.12;;;3.64;51.09
3748;BME280;1889;50.058;8.688;2023-12-04T04:13:51;100212.44;;;3.74;50.92
3748;BME280;1889;50.058;8.688;2023-12-04T04:16:19;100219.05;;;3.83;50.64
3748;BME280;1889;50.058;8.688;2023-12-04T04:18:49;100227.20;;;3.38;51.09
3748;BME280;1889;50.058;8.688;2023-12-04T04:21:17;100223.41;;;3.49;51.50
3748;BME280;1889;50.058;8.688;2023-12-04T04:23:47;100225.22;;;3.53;51.42
3748;BME280;1889;50.058;8.688;2023-12-04T04:26:15;100221.51;;;3.70;51.04
3748;BME280;1889;50.058;8.688;2023-12-04T04:28:44;100224.45;;;3.62;51.05
3748;BME280;1889;50.058;8.688;2023-12-04T04:31:14;100224.52;;;3.34;51.76
3748;BME280;1889;50.058;8.688;2023-12-04T04:33:43;100219.77;;;3.35;51.27
3748;BME280;1889;50.058;8.688;2023-12-04T04:36:12;100225.84;;;3.32;51.78
3748;BME280;1889;50.058;8.688;2023-12-04T04:38:42;100225.75;;;3.28;51.49
3748;BME280;1889;50.058;8.688;2023-12-04T04:41:14;100224.85;;;3.26;51.35
3748;BME280;1889;50.058;8.688;2023-12-04T04:43:43;100222.00;;;3.06;51.87
3748;BME280;1889;50.058;8.688;2023-12-04T04:46:12;100221.53;;;2.74;52.73
3748;BME280;1889;50.058;8.688;2023-12-04T04:48:41;100223.75;;;2.50;53.41
3748;BME280;1889;50.058;8.688;2023-12-04T04:51:10;100221.36;;;2.93;52.62
3748;BME280;1889;50.058;8.688;2023-12-04T04:53:38;100220.30;;;3.10;52.17
3748;BME280;1889;50.058;8.688;2023-12-04T04:56:08;100221.13;;;3.38;51.63
3748;BME280;1889;50.058;8.688;2023-12-04T04:58:38;100213.36;;;3.42;51.44
3748;BME280;1889;50.058;8.688;2023-12-04T05:01:08;100209.09;;;3.46;51.10
3748;BME280;1889;50.058;8.688;2023-12-04T05:03:37;100210.88;;;3.52;51.20
3748;BME280;1889;50.058;8.688;2023-12-04T05:06:05;100195.94;;;3.71;50.68
3748;BME280;1889;50.058;8.688;2023-12-04T05:08:35;100196.87;;;3.77;50.47
3748;BME280;1889;50.058;8.688;2023-12-04T05:11:04;100196.95;;;3.85;50.22
3748;BME280;1889;50.058;8.688;2023-12-04T05:13:33;100190.01;;;3.45;50.72
3748;BME280;1889;50.058;8.688;2023-12-04T05:16:01;100183.61;;;3.55;50.85
3748;BME280;1889;50.058;8.688;2023-12-04T05:18:30;100178.59;;;3.71;50.50
3748;BME280;1889;50.058;8.688;2023-12-04T05:21:00;100174.28;;;3.75;50.44
3748;BME280;1889;50.058;8.688;2023-12-04T05:23:28;100174.73;;;3.76;50.38
3748;BME280;1889;50.058;8.688;2023-12-04T05:25:58;100182.34;;;3.56;50.65
3748;BME280;1889;50.058;8.688;2023-12-04T05:28:27;100181.90;;;3.58;50.66
3748;BME280;1889;50.058;8.688;2023-12-04T05:30:56;100180.67;;;3.63;50.85
3748;BME280;1889;50.058;8.688;2023-12-04T05:33:25;100187.49;;;3.53;51.03
3748;BME280;1889;50.058;8.688;2023-12-04T05:35:54;100182.00;;;3.29;51.41
3748;BME280;1889;50.058;8.688;2023-12-04T05:38:23;100175.47;;;3.63;50.71
3748;BME280;1889;50.058;8.688;2023-12-04T05:40:52;100168.55;;;3.66;50.66
3748;BME280;1889;50.058;8.688;2023-12-04T05:43:22;100183.20;;;3.58;50.62
3748;BME280;1889;50.058;8.688;2023-12-04T05:45:51;100180.27;;;3.65;50.68
3748;BME280;1889;50.058;8.688;2023-12-04T05:48:21;100165.06;;;3.63;50.62
3748;BME280;1889;50.058;8.688;2023-12-04T05:50:50;100164.30;;;3.74;50.19
3748;BME280;1889;50.058;8.688;2023-12-04T05:53:19;100165.52;;;3.28;51.16
3748;BME280;1889;50.058;8.688;2023-12-04T05:55:48;100156.89;;;3.31;51.11
3748;BME280;1889;50.058;8.688;2023-12-04T05:58:16;100151.58;;;3.60;50.55
3748;BME280;1889;50.058;8.688;2023-12-04T06:00:45;100156.98;;;3.38;50.64
3748;BME280;1889;50.058;8.688;2023-12-04T06:03:14;100145.44;;;3.15;51.19
3748;BME280;1889;50.058;8.688;2023-12-04T06:05:42;100140.37;;;3.27;51.01
3748;BME280;1889;50.058;8.688;2023-12-04T06:08:11;100143.14;;;3.42;50.63
3748;BME280;1889;50.058;8.688;2023-12-04T06:10:40;100144.58;;;3.18;51.21
3748;BME280;1889;50.058;8.688;2023-12-04T06:13:09;100139.66;;;3.39;50.73
3748;BME280;1889;50.058;8.688;2023-12-04T06:15:37;100137.48;;;3.41;50.44
3748;BME280;1889;50.058;8.688;2023-12-04T06:18:06;100132.53;;;3.23;50.83
3748;BME280;1889;50.058;8.688;2023-12-04T06:20:35;100128.41;;;3.43;50.36
3748;BME280;1889;50.058;8.688;2023-12-04T06:23:04;100129.56;;;3.29;50.58
3748;BME280;1889;50.058;8.688;2023-12-04T06:25:33;100136.06;;;3.29;50.51
3748;BME280;1889;50.058;8.688;2023-12-04T06:28:02;100132.19;;;3.31;50.55
3748;BME280;1889;50.058;8.688;2023-12-04T06:30:31;100128.84;;;3.05;51.08
3748;BME280;1889;50.058;8.688;2023-12-04T06:33:00;100129.72;;;3.06;51.22
3748;BME280;1889;50.058;8.688;2023-12-04T06:35:30;100128.66;;;2.90;51.45
3748;BME280;1889;50.058;8.688;2023-12-04T06:38:01;100129.25;;;3.03;51.33
3748;BME280;1889;50.058;8.688;2023-12-04T06:40:31;100134.09;;;2.78;51.98
3748;BME280;1889;50.058;8.688;2023-12-04T06:43:00;100143.98;;;2.72;52.03
3748;BME280;1889;50.058;8.688;2023-12-04T06:45:29;100143.14;;;2.73;52.20
3748;BME280;1889;50.058;8.688;2023-12-04T06:48:00;100143.72;;;2.85;51.74
3748;BME280;1889;50.058;8.688;2023-12-04T06:50:29;100142.75;;;3.08;51.55
3748;BME280;1889;50.058;8.688;2023-12-04T06:52:57;100144.12;;;2.81;51.65
3748;BME280;1889;50.058;8.688;2023-12-04T06:55:26;100145.42;;;2.81;51.61
3748;BME280;1889;50.058;8.688;2023-12-04T06:57:55;100128.80;;;3.02;51.36
3748;BME280;1889;50.058;8.688;2023-12-04T07:00:24;100117.94;;;2.98;51.42
3748;BME280;1889;50.058;8.688;2023-12-04T07:02:53;100116.91;;;2.87;51.36
3748;BME280;1889;50.058;8.688;2023-12-04T07:05:22;100120.03;;;2.94;51.83
3748;BME280;1889;50.058;8.688;2023-12-04T07:07:51;100126.30;;;2.78;51.98
3748;BME280;1889;50.058;8.688;2023-12-04T07:10:20;100116.39;;;3.14;51.14
3748;BME280;1889;50.058;8.688;2023-12-04T07:12:49;100110.14;;;2.98;50.97
3748;BME280;1889;50.058;8.688;2023-12-04T07:15:18;100101.10;;;2.40;52.49
3748;BME280;1889;50.058;8.688;2023-12-04T07:17:47;100090.53;;;2.57;52.40
3748;BME280;1889;50.058;8.688;2023-12-04T07:20:16;100093.43;;;2.18;52.83
3748;BME280;1889;50.058;8.688;2023-12-04T07:22:45;100082.34;;;2.59;52.56
3748;BME280;1889;50.058;8.688;2023-12-04T07:25:14;100062.94;;;2.65;52.32
3748;BME280;1889;50.058;8.688;2023-12-04T07:27:44;100059.13;;;2.73;52.07
3748;BME280;1889;50.058;8.688;2023-12-04T07:30:13;100058.21;;;2.35;52.39
3748;BME280;1889;50.058;8.688;2023-12-04T07:32:42;100046.30;;;2.52;52.78
3748;BME280;1889;50.058;8.688;2023-12-04T07:35:11;100043.79;;;2.94;51.88
3748;BME280;1889;50.058;8.688;2023-12-04T07:37:40;100046.38;;;2.57;52.50
3748;BME280;1889;50.058;8.688;2023-12-04T07:40:09;100050.37;;;2.64;52.31
3748;BME280;1889;50.058;8.688;2023-12-04T07:42:38;100064.25;;;2.36;52.91
3748;BME280;1889;50.058;8.688;2023-12-04T07:45:07;100068.34;;;2.20;53.66
3748;BME280;1889;50.058;8.688;2023-12-04T07:47:37;100066.45;;;2.38;53.02
3748;BME280;1889;50.058;8.688;2023-12-04T07:50:07;100061.68;;;2.37;53.02
3748;BME280;1889;50.058;8.688;2023-12-04T07:52:35;100059.60;;;2.77;52.69
3748;BME280;1889;50.058;8.688;2023-12-04T07:55:05;100054.84;;;3.13;51.75
3748;BME280;1889;50.058;8.688;2023-12-04T07:57:34;100051.16;;;2.94;51.72
3748;BME280;1889;50.058;8.688;2023-12-04T08:00:03;100052.86;;;2.92;52.00
3748;BME280;1889;50.058;8.688;2023-12-04T08:02:32;100051.80;;;3.12;51.54
3748;BME280;1889;50.058;8.688;2023-12-04T08:05:01;100051.09;;;2.88;52.13
3748;BME280;1889;50.058;8.688;2023-12-04T08:07:29;100047.73;;;2.97;51.81
3748;BME280;1889;50.058;8.688;2023-12-04T08:09:58;100054.16;;;2.92;51.94
3748;BME280;1889;50.058;8.688;2023-12-04T08:12:27;100051.84;;;2.46;51.78
3748;BME280;1889;50.058;8.688;2023-12-04T08:14:56;100051.63;;;2.97;51.73
3748;BME280;1889;50.058;8.688;2023-12-04T08:17:24;100047.83;;;2.67;52.27
3748;BME280;1889;50.058;8.688;2023-12-04T08:19:53;100037.19;;;2.49;52.55
3748;BME280;1889;50.058;8.688;2023-12-04T08:22:22;100039.25;;;2.75;52.21
3748;BME280;1889;50.058;8.688;2023-12-04T08:24:50;100031.91;;;2.76;52.10
3748;BME280;1889;50.058;8.688;2023-12-04T08:27:19;100031.95;;;3.20;51.41
3748;BME280;1889;50.058;8.688;2023-12-04T08:29:48;100035.25;;;3.04;51.35
3748;BME280;1889;50.058;8.688;2023-12-04T08:32:17;100035.33;;;3.12;51.28
3748;BME280;1889;50.058;8.688;2023-12-04T08:34:45;100029.70;;;3.12;50.91
3748;BME280;1889;50.058;8.688;2023-12-04T08:37:14;100017.01;;;3.01;50.68
3748;BME280;1889;50.058;8.688;2023-12-04T08:39:43;100017.67;;;2.82;50.96
3748;BME280;1889;50.058;8.688;2023-12-04T08:42:12;100016.48;;;2.92;50.82
3748;BME280;1889;50.058;8.688;2023-12-04T08:44:41;100014.29;;;2.89;51.63
3748;BME280;1889;50.058;8.688;2023-12-04T08:47:10;100002.41;;;3.60;50.21
3748;BME280;1889;50.058;8.688;2023-12-04T08:49:40;99988.71;;;3.80;49.91
3748;BME280;1889;50.058;8.688;2023-12-04T08:52:10;99990.00;;;3.82;49.65
3748;BME280;1889;50.058;8.688;2023-12-04T08:54:40;99981.11;;;3.05;50.41
3748;BME280;1889;50.058;8.688;2023-12-04T08:57:10;99980.78;;;3.67;50.09
3748;BME280;1889;50.058;8.688;2023-12-04T08:59:38;99978.77;;;3.86;49.88
3748;BME280;1889;50.058;8.688;2023-12-04T09:02:07;99978.73;;;3.80;49.53
3748;BME280;1889;50.058;8.688;2023-12-04T09:04:36;99979.33;;;4.05;48.96
3748;BME280;1889;50.058;8.688;2023-12-04T09:07:06;99976.17;;;3.88;49.48
3748;BME280;1889;50.058;8.688;2023-12-04T09:09:34;99979.24;;;3.93;49.29
3748;BME280;1889;50.058;8.688;2023-12-04T09:12:03;99976.31;;;4.10;49.18
3748;BME280;1889;50.058;8.688;2023-12-04T09:14:32;99973.71;;;4.10;49.35
3748;BME280;1889;50.058;8.688;2023-12-04T09:17:02;99973.88;;;3.73;49.60
3748;BME280;1889;50.058;8.688;2023-12-04T09:19:32;99968.70;;;3.75;49.60
3748;BME280;1889;50.058;8.688;2023-12-04T09:22:01;99974.61;;;3.53;49.83
3748;BME280;1889;50.058;8.688;2023-12-04T09:24:30;99971.28;;;3.70;49.81
3748;BME280;1889;50.058;8.688;2023-12-04T09:27:00;99966.92;;;3.68;49.72
3748;BME280;1889;50.058;8.688;2023-12-04T09:29:29;99967.17;;;3.44;50.34
3748;BME280;1889;50.058;8.688;2023-12-04T09:31:57;99972.05;;;3.56;50.55
3748;BME280;1889;50.058;8.688;2023-12-04T09:34:27;99975.25;;;3.79;49.58
3748;BME280;1889;50.058;8.688;2023-12-04T09:36:56;99975.59;;;3.68;50.11
3748;BME280;1889;50.058;8.688;2023-12-04T09:39:25;99974.88;;;3.88;49.43
3748;BME280;1889;50.058;8.688;2023-12-04T09:41:53;99973.68;;;4.04;49.28
3748;BME280;1889;50.058;8.688;2023-12-04T09:44:24;99966.34;;;4.11;49.51
3748;BME280;1889;50.058;8.688;2023-12-04T09:46:56;99975.08;;;4.24;49.00
3748;BME280;1889;50.058;8.688;2023-12-04T09:49:27;99972.46;;;4.22;48.20
3748;BME280;1889;50.058;8.688;2023-12-04T09:51:58;99971.97;;;4.09;49.33
3748;BME280;1889;50.058;8.688;2023-12-04T09:54:30;99965.14;;;4.30;48.79
3748;BME280;1889;50.058;8.688;2023-12-04T09:57:00;99965.72;;;3.83;49.06
3748;BME280;1889;50.058;8.688;2023-12-04T09:59:29;99960.42;;;3.69;49.63
3748;BME280;1889;50.058;8.688;2023-12-04T10:01:59;99956.13;;;3.76;49.24
3748;BME280;1889;50.058;8.688;2023-12-04T10:04:28;99953.55;;;3.22;50.40
3748;BME280;1889;50.058;8.688;2023-12-04T10:06:57;99963.06;;;3.75;49.72
3748;BME280;1889;50.058;8.688;2023-12-04T10:09:26;99941.89;;;3.90;49.41
3748;BME280;1889;50.058;8.688;2023-12-04T10:11:58;99944.34;;;3.62;49.85
3748;BME280;1889;50.058;8.688;2023-12-04T10:14:28;99941.63;;;3.47;50.05
3748;BME280;1889;50.058;8.688;2023-12-04T10:16:58;99938.66;;;3.58;50.27
3748;BME280;1889;50.058;8.688;2023-12-04T10:19:28;99938.67;;;3.60;50.03
3748;BME280;1889;50.058;8.688;2023-12-04T10:22:01;99940.99;;;3.83;49.37
3748;BME280;1889;50.058;8.688;2023-12-04T10:24:36;99937.13;;;3.91;49.24
3748;BME280;1889;50.058;8.688;2023-12-04T10:27:07;99936.73;;;3.34;50.03
3748;BME280;1889;50.058;8.688;2023-12-04T10:32:20;99929.34;;;3.89;49.36
3748;BME280;1889;50.058;8.688;2023-12-04T10:34:52;99933.70;;;3.98;49.54
3748;BME280;1889;50.058;8.688;2023-12-04T10:37:23;99930.68;;;4.00;49.26
3748;BME280;1889;50.058;8.688;2023-12-04T10:39:53;99926.82;;;4.04;49.54
3748;BME280;1889;50.058;8.688;2023-12-04T10:42:27;99919.97;;;4.21;49.09
3748;BME280;1889;50.058;8.688;2023-12-04T10:44:58;99913.20;;;3.77;49.22
3748;BME280;1889;50.058;8.688;2023-12-04T10:47:29;99925.46;;;3.98;49.20
3748;BME280;1889;50.058;8.688;2023-12-04T10:49:59;99931.58;;;4.06;49.22
3748;BME280;1889;50.058;8.688;2023-12-04T10:52:31;99924.73;;;3.52;49.79
3748;BME280;1889;50.058;8.688;2023-12-04T10:55:00;99907.95;;;3.70;49.71
3748;BME280;1889;50.058;8.688;2023-12-04T10:57:38;99903.23;;;3.77;49.87
3748;BME280;1889;50.058;8.688;2023-12-04T11:00:09;99902.11;;;4.15;49.35
3748;BME280;1889;50.058;8.688;2023-12-04T11:02:42;99908.68;;;4.26;49.32
3748;BME280;1889;50.058;8.688;2023-12-04T11:05:16;99911.84;;;4.65;48.59
3748;BME280;1889;50.058;8.688;2023-12-04T11:07:51;99910.53;;;4.63;48.76
3748;BME280;1889;50.058;8.688;2023-12-04T11:10:23;99901.36;;;4.42;49.11
3748;BME280;1889;50.058;8.688;2023-12-04T11:13:00;99891.47;;;4.70;48.60
3748;BME280;1889;50.058;8.688;2023-12-04T11:15:30;99888.86;;;4.76;48.55
3748;BME280;1889;50.058;8.688;2023-12-04T11:18:01;99881.45;;;4.73;48.28
3748;BME280;1889;50.058;8.688;2023-12-04T11:20:32;99889.31;;;4.91;48.59
3748;BME280;1889;50.058;8.688;2023-12-04T11:23:03;99894.98;;;5.03;47.99
3748;BME280;1889;50.058;8.688;2023-12-04T11:25:34;99883.21;;;4.81;48.07
3748;BME280;1889;50.058;8.688;2023-12-04T11:28:04;99872.33;;;4.71;47.86
3748;BME280;1889;50.058;8.688;2023-12-04T11:30:34;99876.23;;;4.60;48.52
3748;BME280;1889;50.058;8.688;2023-12-04T11:33:05;99872.30;;;4.51;48.38
3748;BME280;1889;50.058;8.688;2023-12-04T11:35:34;99873.61;;;4.51;47.82
3748;BME280;1889;50.058;8.688;2023-12-04T11:38:05;99863.17;;;4.50;48.48
3748;BME280;1889;50.058;8.688;2023-12-04T11:40:35;99857.58;;;4.81;48.01
3748;BME280;1889;50.058;8.688;2023-12-04T11:43:28;99855.84;;;4.87;47.59
3748;BME280;1889;50.058;8.688;2023-12-04T11:46:11;99845.41;;;4.87;47.53
3748;BME280;1889;50.058;8.688;2023-12-04T11:48:42;99825.42;;;4.80;47.51
3748;BME280;1889;50.058;8.688;2023-12-04T11:51:15;99821.53;;;4.91;47.85
3748;BME280;1889;50.058;8.688;2023-12-04T11:53:45;99810.64;;;4.87;48.05
3748;BME280;1889;50.058;8.688;2023-12-04T11:56:14;99805.42;;;5.23;47.74
3748;BME280;1889;50.058;8.688;2023-12-04T11:58:44;99805.88;;;5.09;48.76
3748;BME280;1889;50.058;8.688;2023-12-04T12:01:17;99808.91;;;5.06;49.70
3748;BME280;1889;50.058;8.688;2023-12-04T12:03:50;99803.73;;;4.78;51.30
3748;BME280;1889;50.058;8.688;2023-12-04T12:06:20;99798.48;;;4.72;52.95
3748;BME280;1889;50.058;8.688;2023-12-04T12:08:50;99782.83;;;4.34;54.65
3748;BME280;1889;50.058;8.688;2023-12-04T12:11:19;99774.16;;;4.58;54.23
3748;BME280;1889;50.058;8.688;2023-12-04T12:13:49;99769.41;;;4.70;54.20
3748;BME280;1889;50.058;8.688;2023-12-04T12:16:18;99765.47;;;4.98;53.32
3748;BME280;1889;50.058;8.688;2023-12-04T12:18:48;99757.66;;;4.94;53.53
3748;BME280;1889;50.058;8.688;2023-12-04T12:21:17;99753.75;;;4.59;55.64
3748;BME280;1889;50.058;8.688;2023-12-04T12:23:46;99745.52;;;4.53;55.82
3748;BME280;1889;50.058;8.688;2023-12-04T12:26:16;99748.13;;;4.61;56.03
3748;BME280;1889;50.058;8.688;2023-12-04T12:28:45;99744.19;;;4.84;55.40
3748;BME280;1889;50.058;8.688;2023-12-04T12:31:15;99735.94;;;4.83;55.58
3748;BME280;1889;50.058;8.688;2023-12-04T12:33:44;99739.41;;;4.94;55.50
3748;BME280;1889;50.058;8.688;2023-12-04T12:36:15;99734.64;;;4.86;55.68
3748;BME280;1889;50.058;8.688;2023-12-04T12:38:46;99734.61;;;4.22;58.16
3748;BME280;1889;50.058;8.688;2023-12-04T12:41:17;99731.61;;;4.51;57.38
3748;BME280;1889;50.058;8.688;2023-12-04T12:43:46;99722.89;;;4.10;58.38
3748;BME280;1889;50.058;8.688;2023-12-04T12:46:18;99716.36;;;4.01;59.83
3748;BME280;1889;50.058;8.688;2023-12-04T12:48:48;99714.66;;;4.33;58.42
3748;BME280;1889;50.058;8.688;2023-12-04T12:51:18;99702.52;;;4.50;58.01
3748;BME280;1889;50.058;8.688;2023-12-04T12:53:48;99709.02;;;4.18;58.50
3748;BME280;1889;50.058;8.688;2023-12-04T12:56:17;99707.08;;;3.43;61.62
3748;BME280;1889;50.058;8.688;2023-12-04T12:58:47;99707.64;;;3.79;61.16
3748;BME280;1889;50.058;8.688;2023-12-04T13:01:15;99693.38;;;4.03;60.60
3748;BME280;1889;50.058;8.688;2023-12-04T13:03:48;99691.66;;;4.11;60.30
3748;BME280;1889;50.058;8.688;2023-12-04T13:06:17;99671.70;;;4.21;60.17
3748;BME280;1889;50.058;8.688;2023-12-04T13:08:47;99667.34;;;4.23;61.11
3748;BME280;1889;50.058;8.688;2023-12-04T13:11:16;99658.67;;;4.27;60.77
3748;BME280;1889;50.058;8.688;2023-12-04T13:13:45;99647.79;;;4.58;60.37
3748;BME280;1889;50.058;8.688;2023-12-04T13:16:15;99638.61;;;4.79;59.49
3748;BME280;1889;50.058;8.688;2023-12-04T13:18:44;99635.16;;;4.86;59.54
3748;BME280;1889;50.058;8.688;2023-12-04T13:21:14;99631.74;;;3.98;61.67
3748;BME280;1889;50.058;8.688;2023-12-04T13:23:43;99631.73;;;3.84;62.30
3748;BME280;1889;50.058;8.688;2023-12-04T13:26:12;99621.78;;;4.18;61.59
3748;BME280;1889;50.058;8.688;2023-12-04T13:28:43;99613.54;;;4.19;61.69
3748;BME280;1889;50.058;8.688;2023-12-04T13:31:13;99600.45;;;4.57;60.45
3748;BME280;1889;50.058;8.688;2023-12-04T13:33:42;99597.40;;;4.67;59.84
3748;BME280;1889;50.058;8.688;2023-12-04T13:36:13;99596.05;;;4.83;59.53
3748;BME280;1889;50.058;8.688;2023-12-04T13:38:42;99595.24;;;4.55;60.17
3748;BME280;1889;50.058;8.688;2023-12-04T13:41:12;99584.47;;;4.21;61.24